createdAt,value
2023-05-19T00:00:55.489Z,16.19
2023-05-19T00:02:21.628Z,16.17
2023-05-19T00:03:27.026Z,16.15
2023-05-19T00:04:32.102Z,16.14
2023-05-19T00:05:47.274Z,16.13
2023-05-19T00:06:55.188Z,16.11
2023-05-19T00:08:02.072Z,16.09
2023-05-19T00:09:10.614Z,16.10
2023-05-19T00:10:16.743Z,16.09
2023-05-19T00:11:23.822Z,16.07
2023-05-19T00:12:30.345Z,16.08
2023-05-19T00:13:36.489Z,16.07
2023-05-19T00:14:40.744Z,16.05
2023-05-19T00:16:03.688Z,16.03
2023-05-19T00:17:09.771Z,16.03
2023-05-19T00:18:17.866Z,16.06
2023-05-19T00:19:24.987Z,16.06
2023-05-19T00:20:33.163Z,16.01
2023-05-19T00:21:38.860Z,15.97
2023-05-19T00:23:03.511Z,15.94
2023-05-19T00:24:07.912Z,15.92
2023-05-19T00:25:14.792Z,15.88
2023-05-19T00:26:19.276Z,15.86
2023-05-19T00:27:25.210Z,15.87
2023-05-19T00:28:46.894Z,15.83
2023-05-19T00:29:50.644Z,15.85
2023-05-19T00:30:55.681Z,15.85
2023-05-19T00:32:00.164Z,15.86
2023-05-19T00:33:07.999Z,15.88
2023-05-19T00:34:13.390Z,15.89
2023-05-19T00:35:20.492Z,15.90
2023-05-19T00:36:26.749Z,15.93
2023-05-19T00:37:34.032Z,15.90
2023-05-19T00:38:39.685Z,15.92
2023-05-19T00:39:44.488Z,15.91
2023-05-19T00:40:47.537Z,15.91
2023-05-19T00:41:52.094Z,15.91
2023-05-19T00:42:56.784Z,15.95
2023-05-19T00:44:07.026Z,15.95
2023-05-19T00:45:12.767Z,15.95
2023-05-19T00:46:18.200Z,15.95
2023-05-19T00:47:23.031Z,15.96
2023-05-19T00:48:30.059Z,15.94
2023-05-19T00:49:36.229Z,15.96
2023-05-19T00:50:45.949Z,15.96
2023-05-19T00:51:52.966Z,15.96
2023-05-19T00:52:59.410Z,15.95
2023-05-19T00:54:05.366Z,15.95
2023-05-19T00:55:15.896Z,15.97
2023-05-19T00:56:24.205Z,15.95
2023-05-19T00:57:50.101Z,15.93
2023-05-19T00:58:56.438Z,15.90
2023-05-19T01:00:22.118Z,15.88
2023-05-19T01:01:29.058Z,15.86
2023-05-19T01:02:34.118Z,15.86
2023-05-19T01:03:41.301Z,15.85
2023-05-19T01:04:47.188Z,15.84
2023-05-19T01:05:54.640Z,15.83
2023-05-19T01:06:59.796Z,15.81
2023-05-19T01:08:05.137Z,15.81
2023-05-19T01:09:10.340Z,15.78
2023-05-19T01:10:14.751Z,15.78
2023-05-19T01:11:20.400Z,15.76
2023-05-19T01:12:24.270Z,15.74
2023-05-19T01:13:31.740Z,15.71
2023-05-19T01:14:36.662Z,15.69
2023-05-19T01:16:00.446Z,15.67
2023-05-19T01:17:17.581Z,15.63
2023-05-19T01:18:31.329Z,15.59
2023-05-19T01:20:10.064Z,15.56
2023-05-19T01:21:52.218Z,15.50
2023-05-19T01:23:15.643Z,15.47
2023-05-19T01:24:36.445Z,15.47
2023-05-19T01:26:18.857Z,15.43
2023-05-19T01:27:43.496Z,15.43
2023-05-19T01:29:18.838Z,15.43
2023-05-19T01:30:32.216Z,15.43
2023-05-19T01:31:42.185Z,15.46
2023-05-19T01:32:49.480Z,15.50
2023-05-19T01:34:05.574Z,15.52
2023-05-19T01:35:14.093Z,15.53
2023-05-19T01:36:39.402Z,15.53
2023-05-19T01:37:46.297Z,15.52
2023-05-19T01:38:55.565Z,15.53
2023-05-19T01:40:00.458Z,15.49
2023-05-19T01:41:09.130Z,15.44
2023-05-19T01:42:15.174Z,15.41
2023-05-19T01:43:24.017Z,15.35
2023-05-19T01:44:28.784Z,15.27
2023-05-19T01:45:38.024Z,15.23
2023-05-19T01:46:44.204Z,15.17
2023-05-19T01:47:51.415Z,15.10
2023-05-19T01:48:58.105Z,15.05
2023-05-19T01:50:02.422Z,14.99
2023-05-19T01:51:10.719Z,14.91
2023-05-19T01:52:16.501Z,14.86
2023-05-19T01:53:22.380Z,14.80
2023-05-19T01:54:26.479Z,14.74
2023-05-19T01:55:30.980Z,14.69
2023-05-19T01:56:47.527Z,14.64
2023-05-19T01:58:06.175Z,14.56
2023-05-19T01:59:29.407Z,14.51
2023-05-19T02:00:47.867Z,14.48
2023-05-19T02:01:55.640Z,14.45
2023-05-19T02:03:11.642Z,14.44
2023-05-19T02:04:23.359Z,14.44
2023-05-19T02:05:38.094Z,14.43
2023-05-19T02:06:48.052Z,14.43
2023-05-19T02:08:04.211Z,14.42
2023-05-19T02:09:15.378Z,14.42
2023-05-19T02:10:26.596Z,14.42
2023-05-19T02:11:38.033Z,14.41
2023-05-19T02:12:42.960Z,14.37
2023-05-19T02:14:15.876Z,14.32
2023-05-19T02:15:27.531Z,14.27
2023-05-19T02:16:37.209Z,14.22
2023-05-19T02:17:48.523Z,14.19
2023-05-19T02:18:54.084Z,14.17
2023-05-19T02:19:58.488Z,14.13
2023-05-19T02:21:03.485Z,14.10
2023-05-19T02:22:08.442Z,14.10
2023-05-19T02:23:12.374Z,14.09
2023-05-19T02:24:18.621Z,14.07
2023-05-19T02:25:24.694Z,14.09
2023-05-19T02:26:29.287Z,14.09
2023-05-19T02:27:33.588Z,14.11
2023-05-19T02:28:40.500Z,14.12
2023-05-19T02:29:45.766Z,14.13
2023-05-19T02:30:53.118Z,14.13
2023-05-19T02:32:02.611Z,14.10
2023-05-19T02:33:08.680Z,14.05
2023-05-19T02:34:12.702Z,14.05
2023-05-19T02:35:19.326Z,14.01
2023-05-19T02:36:24.378Z,13.99
2023-05-19T02:37:29.676Z,13.96
2023-05-19T02:38:35.541Z,13.95
2023-05-19T02:39:40.011Z,13.93
2023-05-19T02:40:44.003Z,13.91
2023-05-19T02:41:50.231Z,13.91
2023-05-19T02:42:56.130Z,13.89
2023-05-19T02:44:02.125Z,13.89
2023-05-19T02:45:07.110Z,13.87
2023-05-19T02:46:13.100Z,13.90
2023-05-19T02:47:37.592Z,13.91
2023-05-19T02:48:43.098Z,13.93
2023-05-19T02:49:46.304Z,13.98
2023-05-19T02:50:52.541Z,14.01
2023-05-19T02:52:15.281Z,14.00
2023-05-19T02:53:23.562Z,13.98
2023-05-19T02:54:27.215Z,13.97
2023-05-19T02:55:34.064Z,13.98
2023-05-19T02:56:37.780Z,14.00
2023-05-19T02:57:44.320Z,14.03
2023-05-19T02:58:49.225Z,14.04
2023-05-19T02:59:55.170Z,14.04
2023-05-19T03:01:01.999Z,14.06
2023-05-19T03:02:12.149Z,14.09
2023-05-19T03:03:23.182Z,14.10
2023-05-19T03:04:30.383Z,14.10
2023-05-19T03:05:38.876Z,14.13
2023-05-19T03:06:48.331Z,14.15
2023-05-19T03:07:57.164Z,14.18
2023-05-19T03:09:06.188Z,14.19
2023-05-19T03:10:11.932Z,14.19
2023-05-19T03:11:19.256Z,14.20
2023-05-19T03:12:23.270Z,14.21
2023-05-19T03:13:29.595Z,14.21
2023-05-19T03:14:53.596Z,14.21
2023-05-19T03:15:59.425Z,14.21
2023-05-19T03:17:03.527Z,14.21
2023-05-19T03:18:11.302Z,14.23
2023-05-19T03:19:20.965Z,14.24
2023-05-19T03:20:45.288Z,14.22
2023-05-19T03:21:49.266Z,14.22
2023-05-19T03:22:53.834Z,14.22
2023-05-19T03:23:59.204Z,14.23
2023-05-19T03:25:23.023Z,14.21
2023-05-19T03:26:26.300Z,14.20
2023-05-19T03:27:34.070Z,14.21
2023-05-19T03:28:37.423Z,14.21
2023-05-19T03:29:42.770Z,14.22
2023-05-19T03:30:50.416Z,14.22
2023-05-19T03:31:55.704Z,14.22
2023-05-19T03:33:02.509Z,14.23
2023-05-19T03:34:08.467Z,14.23
2023-05-19T03:35:14.666Z,14.23
2023-05-19T03:36:20.470Z,14.22
2023-05-19T03:37:24.839Z,14.23
2023-05-19T03:38:47.755Z,14.21
2023-05-19T03:39:52.217Z,14.19
2023-05-19T03:40:57.417Z,14.17
2023-05-19T03:42:00.349Z,14.15
2023-05-19T03:43:06.295Z,14.15
2023-05-19T03:44:11.452Z,14.12
2023-05-19T03:45:34.189Z,14.08
2023-05-19T03:46:38.902Z,14.06
2023-05-19T03:47:44.413Z,14.06
2023-05-19T03:48:57.864Z,14.06
2023-05-19T03:50:05.688Z,14.04
2023-05-19T03:51:11.936Z,14.05
2023-05-19T03:52:17.550Z,14.06
2023-05-19T03:53:24.774Z,14.08
2023-05-19T03:54:30.992Z,14.07
2023-05-19T03:55:36.314Z,14.07
2023-05-19T03:56:43.455Z,14.09
2023-05-19T03:57:59.906Z,14.07
2023-05-19T03:59:07.491Z,14.07
2023-05-19T04:00:17.087Z,14.06
2023-05-19T04:02:05.762Z,14.06
2023-05-19T04:03:11.249Z,13.97
2023-05-19T04:04:16.020Z,13.97
2023-05-19T04:05:20.347Z,13.97
2023-05-19T04:06:28.838Z,13.97
2023-05-19T04:07:36.619Z,13.98
2023-05-19T04:08:41.782Z,14.00
2023-05-19T04:09:50.123Z,14.00
2023-05-19T04:10:55.708Z,14.01
2023-05-19T04:12:02.072Z,14.02
2023-05-19T04:13:11.290Z,14.03
2023-05-19T04:14:14.497Z,14.03
2023-05-19T04:15:20.256Z,14.02
2023-05-19T04:16:26.013Z,14.01
2023-05-19T04:17:32.817Z,14.00
2023-05-19T04:18:38.022Z,14.01
2023-05-19T04:19:43.225Z,14.00
2023-05-19T04:20:49.310Z,14.00
2023-05-19T04:21:58.442Z,14.01
2023-05-19T04:23:02.447Z,14.01
2023-05-19T04:24:09.078Z,14.03
2023-05-19T04:25:13.853Z,14.05
2023-05-19T04:26:20.846Z,14.05
2023-05-19T04:27:28.352Z,14.07
2023-05-19T04:28:53.687Z,14.06
2023-05-19T04:29:58.674Z,14.07
2023-05-19T04:31:23.619Z,14.09
2023-05-19T04:32:29.496Z,14.08
2023-05-19T04:33:36.388Z,14.09
2023-05-19T04:34:42.282Z,14.10
2023-05-19T04:35:50.956Z,14.10
2023-05-19T04:36:58.117Z,14.13
2023-05-19T04:38:03.585Z,14.15
2023-05-19T04:39:10.343Z,14.16
2023-05-19T04:40:16.639Z,14.12
2023-05-19T04:41:24.188Z,14.12
2023-05-19T04:42:49.967Z,14.06
2023-05-19T04:43:54.769Z,14.04
2023-05-19T04:45:00.297Z,14.07
2023-05-19T04:46:07.210Z,14.06
2023-05-19T04:47:13.841Z,14.10
2023-05-19T04:48:18.784Z,14.10
2023-05-19T04:49:44.295Z,14.09
2023-05-19T04:50:50.128Z,14.09
2023-05-19T04:51:57.466Z,14.08
2023-05-19T04:53:05.332Z,14.08
2023-05-19T04:54:10.804Z,14.11
2023-05-19T04:55:14.400Z,14.14
2023-05-19T04:56:37.398Z,14.13
2023-05-19T04:57:42.674Z,14.14
2023-05-19T04:58:47.647Z,14.17
2023-05-19T04:59:51.409Z,14.19
2023-05-19T05:01:16.060Z,14.20
2023-05-19T05:02:22.053Z,14.23
2023-05-19T05:03:28.551Z,14.24
2023-05-19T05:04:33.724Z,14.27
2023-05-19T05:05:38.424Z,14.28
2023-05-19T05:07:02.724Z,14.30
2023-05-19T05:08:08.443Z,14.33
2023-05-19T05:09:13.858Z,14.33
2023-05-19T05:10:19.724Z,14.34
2023-05-19T05:11:27.659Z,14.36
2023-05-19T05:12:33.739Z,14.40
2023-05-19T05:13:40.801Z,14.40
2023-05-19T05:14:45.684Z,14.46
2023-05-19T05:15:52.923Z,14.46
2023-05-19T05:16:58.139Z,14.49
2023-05-19T05:18:05.106Z,14.51
2023-05-19T05:19:30.029Z,14.53
2023-05-19T05:20:36.509Z,14.54
2023-05-19T05:21:42.552Z,14.56
2023-05-19T05:22:56.050Z,14.60
2023-05-19T05:24:00.602Z,14.61
2023-05-19T05:25:07.428Z,14.62
2023-05-19T05:26:18.214Z,14.63
2023-05-19T05:27:23.423Z,14.63
2023-05-19T05:28:27.427Z,14.64
2023-05-19T05:29:32.727Z,14.66
2023-05-19T05:30:38.061Z,14.66
2023-05-19T05:31:44.242Z,14.69
2023-05-19T05:32:48.365Z,14.70
2023-05-19T05:33:53.447Z,14.74
2023-05-19T05:34:58.867Z,14.74
2023-05-19T05:36:03.103Z,14.76
2023-05-19T05:37:10.354Z,14.77
2023-05-19T05:38:15.692Z,14.76
2023-05-19T05:39:23.386Z,14.76
2023-05-19T05:40:29.829Z,14.78
2023-05-19T05:41:42.173Z,14.79
2023-05-19T05:42:45.750Z,14.81
2023-05-19T05:44:08.826Z,14.81
2023-05-19T05:45:13.988Z,14.82
2023-05-19T05:46:20.136Z,14.87
2023-05-19T05:47:24.178Z,14.88
2023-05-19T05:48:30.083Z,14.88
2023-05-19T05:49:39.774Z,14.89
2023-05-19T05:50:46.210Z,14.87
2023-05-19T05:52:01.883Z,14.87
2023-05-19T05:53:15.642Z,14.89
2023-05-19T05:54:25.022Z,14.89
2023-05-19T05:55:51.164Z,14.87
2023-05-19T05:56:55.903Z,14.87
2023-05-19T05:58:02.594Z,14.89
2023-05-19T05:59:06.723Z,14.89
2023-05-19T06:00:15.983Z,14.88
2023-05-19T06:01:21.778Z,14.91
2023-05-19T06:02:26.603Z,14.92
2023-05-19T06:03:29.919Z,14.93
2023-05-19T06:04:35.127Z,14.97
2023-05-19T06:05:39.904Z,14.96
2023-05-19T06:07:05.138Z,14.95
2023-05-19T06:08:09.550Z,14.95
2023-05-19T06:09:16.031Z,14.96
2023-05-19T06:10:22.593Z,14.99
2023-05-19T06:11:27.460Z,14.96
2023-05-19T06:12:31.018Z,14.98
2023-05-19T06:13:37.406Z,14.98
2023-05-19T06:14:40.607Z,14.96
2023-05-19T06:15:46.253Z,14.98
2023-05-19T06:16:50.298Z,14.98
2023-05-19T06:18:15.387Z,14.93
2023-05-19T06:19:20.363Z,14.92
2023-05-19T06:20:45.803Z,14.90
2023-05-19T06:21:50.411Z,14.92
2023-05-19T06:22:56.515Z,14.93
2023-05-19T06:24:01.049Z,14.93
2023-05-19T06:25:06.700Z,14.95
2023-05-19T06:26:30.158Z,14.97
2023-05-19T06:27:36.149Z,14.98
2023-05-19T06:28:42.904Z,15.02
2023-05-19T06:29:48.174Z,15.07
2023-05-19T06:30:52.605Z,15.12
2023-05-19T06:31:57.833Z,15.17
2023-05-19T06:33:05.156Z,15.22
2023-05-19T06:34:13.303Z,15.27
2023-05-19T06:35:18.458Z,15.31
2023-05-19T06:36:25.325Z,15.38
2023-05-19T06:37:30.431Z,15.42
2023-05-19T06:38:36.664Z,15.48
2023-05-19T06:39:42.794Z,15.52
2023-05-19T06:41:06.820Z,15.53
2023-05-19T06:42:12.834Z,15.58
2023-05-19T06:43:21.284Z,15.61
2023-05-19T06:44:45.465Z,15.67
2023-05-19T06:45:50.278Z,15.73
2023-05-19T06:46:55.725Z,15.79
2023-05-19T06:48:01.046Z,15.82
2023-05-19T06:49:23.609Z,15.83
2023-05-19T06:50:29.165Z,15.87
2023-05-19T06:51:33.005Z,15.88
2023-05-19T06:52:39.436Z,15.91
2023-05-19T06:54:03.239Z,15.90
2023-05-19T06:55:08.945Z,15.94
2023-05-19T06:56:15.863Z,15.95
2023-05-19T06:57:22.511Z,15.97
2023-05-19T06:58:29.193Z,15.97
2023-05-19T06:59:33.433Z,16.00
2023-05-19T07:00:39.377Z,16.04
2023-05-19T07:01:43.951Z,16.08
2023-05-19T07:02:50.327Z,16.14
2023-05-19T07:03:54.748Z,16.18
2023-05-19T07:05:01.176Z,16.23
2023-05-19T07:06:07.703Z,16.27
2023-05-19T07:07:13.995Z,16.30
2023-05-19T07:08:18.362Z,16.36
2023-05-19T07:09:23.916Z,16.40
2023-05-19T07:10:28.039Z,16.45
2023-05-19T07:11:34.602Z,16.48
2023-05-19T07:12:41.979Z,16.53
2023-05-19T07:13:46.168Z,16.56
2023-05-19T07:15:11.170Z,16.58
2023-05-19T07:16:16.559Z,16.62
2023-05-19T07:17:25.166Z,16.64
2023-05-19T07:18:32.852Z,16.66
2023-05-19T07:19:37.842Z,16.69
2023-05-19T07:20:43.755Z,16.70
2023-05-19T07:21:50.065Z,16.75
2023-05-19T07:22:56.105Z,16.77
2023-05-19T07:24:01.176Z,16.79
2023-05-19T07:25:07.218Z,16.81
2023-05-19T07:26:11.463Z,16.82
2023-05-19T07:27:17.735Z,16.84
2023-05-19T07:28:23.469Z,16.84
2023-05-19T07:29:29.164Z,16.86
2023-05-19T07:30:35.057Z,16.89
2023-05-19T07:31:40.735Z,16.91
2023-05-19T07:32:47.741Z,16.95
2023-05-19T07:33:54.536Z,16.98
2023-05-19T07:35:00.248Z,17.00
2023-05-19T07:36:04.874Z,17.00
2023-05-19T07:37:28.435Z,16.98
2023-05-19T07:38:35.919Z,16.98
2023-05-19T07:39:43.614Z,17.01
2023-05-19T07:41:07.032Z,17.00
2023-05-19T07:42:13.976Z,17.02
2023-05-19T07:43:39.700Z,16.99
2023-05-19T07:44:43.967Z,16.99
2023-05-19T07:45:49.488Z,17.00
2023-05-19T07:46:54.242Z,17.02
2023-05-19T07:48:00.556Z,17.03
2023-05-19T07:49:06.743Z,17.03
2023-05-19T07:50:13.524Z,17.03
2023-05-19T07:51:17.216Z,17.05
2023-05-19T07:52:39.927Z,17.05
2023-05-19T07:53:44.989Z,17.03
2023-05-19T07:54:51.227Z,17.04
2023-05-19T07:55:57.075Z,17.05
2023-05-19T07:57:04.324Z,17.05
2023-05-19T07:58:10.069Z,17.05
2023-05-19T07:59:17.586Z,17.08
2023-05-19T08:00:22.185Z,17.08
2023-05-19T08:01:29.739Z,17.08
2023-05-19T08:02:36.522Z,17.10
2023-05-19T08:03:43.200Z,17.13
2023-05-19T08:04:48.921Z,17.14
2023-05-19T08:05:53.466Z,17.16
2023-05-19T08:06:56.571Z,17.20
2023-05-19T08:08:03.246Z,17.23
2023-05-19T08:09:08.670Z,17.22
2023-05-19T08:10:13.418Z,17.23
2023-05-19T08:11:19.963Z,17.22
2023-05-19T08:12:24.763Z,17.17
2023-05-19T08:13:29.434Z,17.14
2023-05-19T08:14:36.326Z,17.12
2023-05-19T08:15:39.613Z,17.09
2023-05-19T08:16:46.165Z,17.08
2023-05-19T08:17:51.150Z,17.04
2023-05-19T08:19:11.090Z,17.01
2023-05-19T08:20:15.206Z,17.00
2023-05-19T08:21:20.253Z,16.99
2023-05-19T08:22:26.632Z,16.96
2023-05-19T08:23:30.434Z,16.92
2023-05-19T08:24:35.903Z,16.91
2023-05-19T08:25:41.897Z,16.90
2023-05-19T08:26:46.861Z,16.87
2023-05-19T08:27:50.821Z,16.82
2023-05-19T08:28:55.941Z,16.80
2023-05-19T08:30:01.059Z,16.77
2023-05-19T08:31:06.828Z,16.74
2023-05-19T08:32:13.039Z,16.72
2023-05-19T08:33:21.198Z,16.69
2023-05-19T08:34:26.669Z,16.66
2023-05-19T08:35:32.736Z,16.66
2023-05-19T08:36:39.966Z,16.66
2023-05-19T08:37:45.467Z,16.64
2023-05-19T08:38:51.212Z,16.63
2023-05-19T08:39:57.426Z,16.63
2023-05-19T08:41:02.486Z,16.62
2023-05-19T08:42:10.272Z,16.61
2023-05-19T08:43:14.872Z,16.60
2023-05-19T08:44:19.463Z,16.61
2023-05-19T08:45:30.103Z,16.61
2023-05-19T08:46:35.457Z,16.61
2023-05-19T08:47:40.239Z,16.62
2023-05-19T08:48:50.124Z,16.64
2023-05-19T08:49:56.970Z,16.64
2023-05-19T08:51:09.436Z,16.67
2023-05-19T08:52:24.929Z,16.65
2023-05-19T08:53:34.803Z,16.64
2023-05-19T08:54:45.519Z,16.62
2023-05-19T08:55:59.912Z,16.58
2023-05-19T08:57:05.748Z,16.52
2023-05-19T08:58:10.794Z,16.48
2023-05-19T08:59:15.112Z,16.46
2023-05-19T09:00:20.984Z,16.43
2023-05-19T09:01:31.951Z,16.41
2023-05-19T09:02:37.141Z,16.37
2023-05-19T09:04:00.641Z,16.30
2023-05-19T09:05:04.941Z,16.30
2023-05-19T09:06:09.549Z,16.28
2023-05-19T09:07:15.415Z,16.24
2023-05-19T09:08:19.702Z,16.17
2023-05-19T09:09:23.889Z,16.11
2023-05-19T09:10:29.217Z,16.04
2023-05-19T09:11:34.559Z,15.99
2023-05-19T09:12:57.654Z,15.93
2023-05-19T09:14:02.288Z,15.90
2023-05-19T09:15:08.986Z,15.89
2023-05-19T09:16:14.667Z,15.87
2023-05-19T09:17:23.334Z,15.85
2023-05-19T09:18:28.949Z,15.82
2023-05-19T09:19:32.622Z,15.84
2023-05-19T09:20:40.008Z,15.84
2023-05-19T09:21:46.822Z,15.81
2023-05-19T09:22:50.899Z,15.82
2023-05-19T09:23:56.169Z,15.84
2023-05-19T09:25:01.132Z,15.85
2023-05-19T09:26:08.199Z,15.87
2023-05-19T09:27:16.958Z,15.88
2023-05-19T09:28:29.859Z,15.91
2023-05-19T09:29:33.029Z,15.91
2023-05-19T09:30:37.443Z,15.93
2023-05-19T09:32:01.259Z,15.95
2023-05-19T09:33:10.436Z,15.95
2023-05-19T09:34:16.278Z,15.98
2023-05-19T09:35:38.918Z,16.05
2023-05-19T09:36:42.514Z,16.10
2023-05-19T09:38:06.915Z,16.13
2023-05-19T09:40:39.060Z,16.15
2023-05-19T09:41:43.201Z,16.20
2023-05-19T09:42:49.012Z,16.25
2023-05-19T09:44:16.143Z,16.27
2023-05-19T09:45:23.710Z,16.31
2023-05-19T09:46:50.648Z,16.33
2023-05-19T09:47:55.681Z,16.40
2023-05-19T09:48:59.278Z,16.44
2023-05-19T09:50:04.071Z,16.50
2023-05-19T09:51:11.146Z,16.54
2023-05-19T09:52:18.717Z,16.58
2023-05-19T09:53:41.114Z,16.55
2023-05-19T09:54:45.507Z,16.53
2023-05-19T09:55:52.868Z,16.55
2023-05-19T09:57:00.325Z,16.55
2023-05-19T09:58:24.463Z,16.51
2023-05-19T09:59:30.480Z,16.55
2023-05-19T10:00:37.510Z,16.59
2023-05-19T10:01:41.930Z,16.61
2023-05-19T10:02:49.148Z,16.63
2023-05-19T10:03:54.232Z,16.64
2023-05-19T10:04:59.438Z,16.67
2023-05-19T10:06:07.688Z,16.71
2023-05-19T10:07:14.625Z,16.76
2023-05-19T10:08:19.284Z,16.80
2023-05-19T10:09:32.777Z,16.82
2023-05-19T10:10:36.900Z,16.84
2023-05-19T10:12:00.524Z,16.80
2023-05-19T10:13:06.340Z,16.79
2023-05-19T10:14:12.474Z,16.74
2023-05-19T10:15:40.744Z,16.71
2023-05-19T10:16:53.059Z,16.69
2023-05-19T10:18:19.535Z,16.63
2023-05-19T10:19:23.762Z,16.63
2023-05-19T10:20:28.499Z,16.63
2023-05-19T10:21:41.434Z,16.63
2023-05-19T10:22:46.470Z,16.62
2023-05-19T10:24:10.490Z,16.61
2023-05-19T10:25:19.553Z,16.60
2023-05-19T10:26:27.340Z,16.60
2023-05-19T10:27:33.631Z,16.56
2023-05-19T10:28:46.992Z,16.54
2023-05-19T10:29:53.263Z,16.48
2023-05-19T10:31:03.224Z,16.48
2023-05-19T10:32:12.624Z,16.48
2023-05-19T10:33:18.534Z,16.46
2023-05-19T10:34:40.699Z,16.44
2023-05-19T10:36:03.318Z,16.43
2023-05-19T10:37:15.623Z,16.44
2023-05-19T10:38:30.622Z,16.43
2023-05-19T10:39:36.942Z,16.42
2023-05-19T10:40:51.992Z,16.39
2023-05-19T10:42:06.410Z,16.38
2023-05-19T10:43:23.407Z,16.37
2023-05-19T10:44:42.577Z,16.34
2023-05-19T10:45:50.711Z,16.34
2023-05-19T10:46:56.716Z,16.34
2023-05-19T10:48:01.226Z,16.35
2023-05-19T10:49:05.952Z,16.40
2023-05-19T10:50:12.017Z,16.44
2023-05-19T10:51:17.616Z,16.51
2023-05-19T10:52:22.348Z,16.59
2023-05-19T10:53:33.513Z,16.65
2023-05-19T10:54:47.525Z,16.69
2023-05-19T10:55:56.505Z,16.70
2023-05-19T10:56:59.568Z,16.72
2023-05-19T10:58:04.390Z,16.76
2023-05-19T10:59:31.251Z,16.80
2023-05-19T11:00:36.591Z,16.82
2023-05-19T11:01:42.708Z,16.85
2023-05-19T11:02:46.408Z,16.87
2023-05-19T11:03:52.471Z,16.91
2023-05-19T11:04:58.683Z,16.94
2023-05-19T11:06:29.835Z,16.99
2023-05-19T11:07:33.288Z,17.01
2023-05-19T11:08:38.758Z,17.06
2023-05-19T11:09:43.740Z,17.10
2023-05-19T11:10:48.464Z,17.10
2023-05-19T11:11:53.574Z,17.11
2023-05-19T11:12:59.691Z,17.10
2023-05-19T11:14:05.902Z,17.11
2023-05-19T11:15:13.302Z,17.11
2023-05-19T11:16:22.543Z,17.11
2023-05-19T11:17:27.709Z,17.12
2023-05-19T11:18:34.467Z,17.13
2023-05-19T11:19:38.050Z,17.14
2023-05-19T11:20:42.388Z,17.12
2023-05-19T11:21:50.795Z,17.12
2023-05-19T11:23:08.169Z,17.11
2023-05-19T11:24:32.565Z,17.11
2023-05-19T11:25:47.678Z,17.05
2023-05-19T11:26:52.029Z,17.04
2023-05-19T11:27:55.786Z,17.05
2023-05-19T11:29:00.612Z,17.06
2023-05-19T11:30:15.483Z,17.07
2023-05-19T11:31:23.368Z,17.06
2023-05-19T11:32:31.965Z,17.06
2023-05-19T11:33:37.654Z,17.06
2023-05-19T11:34:41.175Z,17.05
2023-05-19T11:35:47.313Z,17.06
2023-05-19T11:36:54.945Z,17.07
2023-05-19T11:38:18.208Z,17.05
2023-05-19T11:39:41.979Z,17.02
2023-05-19T11:40:47.938Z,17.02
2023-05-19T11:41:52.515Z,17.01
2023-05-19T11:42:56.312Z,17.01
2023-05-19T11:44:00.165Z,17.01
2023-05-19T11:45:29.122Z,16.98
2023-05-19T11:46:33.931Z,16.98
2023-05-19T11:47:51.675Z,16.99
2023-05-19T11:49:03.133Z,16.98
2023-05-19T11:50:07.848Z,17.00
2023-05-19T11:51:30.355Z,17.04
2023-05-19T11:52:34.760Z,17.06
2023-05-19T11:53:38.719Z,17.09
2023-05-19T11:55:02.686Z,17.10
2023-05-19T11:56:07.425Z,17.11
2023-05-19T11:57:30.640Z,17.11
2023-05-19T11:58:34.328Z,17.17
2023-05-19T11:59:44.313Z,17.24
2023-05-19T12:00:49.760Z,17.32
2023-05-19T12:01:52.929Z,17.38
2023-05-19T12:03:15.306Z,17.41
2023-05-19T12:04:20.507Z,17.47
2023-05-19T12:05:47.771Z,17.50
2023-05-19T12:06:51.181Z,17.53
2023-05-19T12:07:55.271Z,17.56
2023-05-19T12:09:20.149Z,17.55
2023-05-19T12:10:24.115Z,17.54
2023-05-19T12:11:32.292Z,17.52
2023-05-19T12:12:36.034Z,17.50
2023-05-19T12:13:41.146Z,17.48
2023-05-19T12:14:44.904Z,17.50
2023-05-19T12:15:54.273Z,17.52
2023-05-19T12:16:58.154Z,17.56
2023-05-19T12:18:04.170Z,17.58
2023-05-19T12:19:07.472Z,17.63
2023-05-19T12:20:13.912Z,17.65
2023-05-19T12:21:18.966Z,17.65
2023-05-19T12:22:22.484Z,17.66
2023-05-19T12:23:27.532Z,17.68
2023-05-19T12:24:31.829Z,17.69
2023-05-19T12:25:37.406Z,17.70
2023-05-19T12:26:43.545Z,17.73
2023-05-19T12:27:48.981Z,17.74
2023-05-19T12:28:54.119Z,17.79
2023-05-19T12:29:57.871Z,17.82
2023-05-19T12:31:04.498Z,17.85
2023-05-19T12:32:09.343Z,17.86
2023-05-19T12:33:17.434Z,17.87
2023-05-19T12:34:22.148Z,17.88
2023-05-19T12:35:29.372Z,17.91
2023-05-19T12:36:33.267Z,17.91
2023-05-19T12:37:43.046Z,17.92
2023-05-19T12:38:48.458Z,17.91
2023-05-19T12:39:53.834Z,17.92
2023-05-19T12:41:01.295Z,17.89
2023-05-19T12:42:08.168Z,17.89
2023-05-19T12:43:23.686Z,17.90
2023-05-19T12:44:28.957Z,17.90
2023-05-19T12:45:37.543Z,17.94
2023-05-19T12:46:43.998Z,18.01
2023-05-19T12:47:51.486Z,18.08
2023-05-19T12:49:03.501Z,18.16
2023-05-19T12:50:10.427Z,18.26
2023-05-19T12:51:18.914Z,18.34
2023-05-19T12:52:25.147Z,18.40
2023-05-19T12:53:29.906Z,18.44
2023-05-19T12:54:36.623Z,18.51
2023-05-19T12:55:43.624Z,18.56
2023-05-19T12:56:53.509Z,18.62
2023-05-19T12:58:00.122Z,18.66
2023-05-19T12:59:04.772Z,18.68
2023-05-19T13:00:17.829Z,18.69
2023-05-19T13:01:25.733Z,18.70
2023-05-19T13:02:31.624Z,18.73
2023-05-19T13:03:43.895Z,18.75
2023-05-19T13:04:49.428Z,18.74
2023-05-19T13:05:54.154Z,18.75
2023-05-19T13:06:57.867Z,18.73
2023-05-19T13:08:04.242Z,18.73
2023-05-19T13:09:08.674Z,18.74
2023-05-19T13:10:13.578Z,18.76
2023-05-19T13:11:17.760Z,18.78
2023-05-19T13:12:22.520Z,18.81
2023-05-19T13:13:26.528Z,18.85
2023-05-19T13:14:30.931Z,18.92
2023-05-19T13:15:36.973Z,18.99
2023-05-19T13:16:41.810Z,19.04
2023-05-19T13:17:47.356Z,19.08
2023-05-19T13:18:54.934Z,19.09
2023-05-19T13:19:57.963Z,19.11
2023-05-19T13:21:05.395Z,19.11
2023-05-19T13:22:10.366Z,19.10
2023-05-19T13:23:15.893Z,19.10
2023-05-19T13:24:20.394Z,19.11
2023-05-19T13:25:25.003Z,19.11
2023-05-19T13:26:30.997Z,19.11
2023-05-19T13:27:35.160Z,19.12
2023-05-19T13:28:39.651Z,19.13
2023-05-19T13:29:44.360Z,19.14
2023-05-19T13:30:50.177Z,19.14
2023-05-19T13:31:54.937Z,19.12
2023-05-19T13:33:03.290Z,19.10
2023-05-19T13:34:08.880Z,19.08
2023-05-19T13:35:12.638Z,19.08
2023-05-19T13:36:18.020Z,19.06
2023-05-19T13:37:22.572Z,19.05
2023-05-19T13:38:30.779Z,19.05
2023-05-19T13:39:34.569Z,19.03
2023-05-19T13:40:40.516Z,19.07
2023-05-19T13:41:44.480Z,19.07
2023-05-19T13:42:49.723Z,19.08
2023-05-19T13:43:56.930Z,19.08
2023-05-19T13:45:01.280Z,19.09
2023-05-19T13:46:08.203Z,19.11
2023-05-19T13:47:12.858Z,19.11
2023-05-19T13:48:21.371Z,19.12
2023-05-19T13:49:25.652Z,19.14
2023-05-19T13:50:31.477Z,19.16
2023-05-19T13:51:35.225Z,19.18
2023-05-19T13:52:40.481Z,19.26
2023-05-19T13:53:46.705Z,19.32
2023-05-19T13:54:50.131Z,19.36
2023-05-19T13:55:57.226Z,19.41
2023-05-19T13:57:01.172Z,19.42
2023-05-19T13:58:06.710Z,19.44
2023-05-19T13:59:10.033Z,19.47
2023-05-19T14:00:16.639Z,19.52
2023-05-19T14:01:32.844Z,19.58
2023-05-19T14:02:39.196Z,19.60
2023-05-19T14:03:47.714Z,19.62
2023-05-19T14:04:53.087Z,19.62
2023-05-19T14:05:58.475Z,19.64
2023-05-19T14:07:03.558Z,19.65
2023-05-19T14:08:09.852Z,19.69
2023-05-19T14:09:14.699Z,19.74
2023-05-19T14:10:20.694Z,19.79
2023-05-19T14:11:25.593Z,19.82
2023-05-19T14:12:38.049Z,19.86
2023-05-19T14:13:52.734Z,19.88
2023-05-19T14:14:58.658Z,19.90
2023-05-19T14:16:06.103Z,19.92
2023-05-19T14:17:12.366Z,19.91
2023-05-19T14:18:20.761Z,19.92
2023-05-19T14:19:30.837Z,19.95
2023-05-19T14:20:35.413Z,19.97
2023-05-19T14:21:41.366Z,19.98
2023-05-19T14:22:46.926Z,19.96
2023-05-19T14:23:50.826Z,19.96
2023-05-19T14:24:57.476Z,19.95
2023-05-19T14:26:01.607Z,19.91
2023-05-19T14:27:08.502Z,19.90
2023-05-19T14:28:14.404Z,19.88
2023-05-19T14:29:20.011Z,19.87
2023-05-19T14:30:25.516Z,19.87
2023-05-19T14:31:30.168Z,19.87
2023-05-19T14:32:35.368Z,19.86
2023-05-19T14:33:41.980Z,19.87
2023-05-19T14:34:53.565Z,19.86
2023-05-19T14:36:00.926Z,19.85
2023-05-19T14:37:07.532Z,19.84
2023-05-19T14:38:13.588Z,19.82
2023-05-19T14:39:19.634Z,19.85
2023-05-19T14:40:26.603Z,19.86
2023-05-19T14:41:32.397Z,19.90
2023-05-19T14:42:38.020Z,19.92